createdAt,value
2023-03-15T00:00:10.354Z,1.20
2023-03-15T00:02:38.609Z,1.13
2023-03-15T00:05:07.230Z,1.23
2023-03-15T00:07:35.424Z,1.10
2023-03-15T00:10:04.278Z,0.97
2023-03-15T00:12:34.425Z,0.80
2023-03-15T00:15:04.030Z,1.00
2023-03-15T00:17:34.648Z,0.90
2023-03-15T00:20:04.167Z,1.40
2023-03-15T00:22:32.314Z,1.00
2023-03-15T00:25:00.448Z,1.00
2023-03-15T00:27:28.649Z,0.90
2023-03-15T00:29:56.810Z,1.10
2023-03-15T00:32:26.410Z,1.10
2023-03-15T00:34:54.686Z,0.93
2023-03-15T00:37:25.667Z,0.73
2023-03-15T00:39:55.614Z,0.93
2023-03-15T00:42:27.648Z,0.70
2023-03-15T00:44:56.418Z,0.80
2023-03-15T00:47:26.101Z,0.90
2023-03-15T00:49:54.273Z,0.90
2023-03-15T00:52:22.809Z,0.70
2023-03-15T00:54:54.263Z,0.67
2023-03-15T00:57:22.501Z,0.67
2023-03-15T00:59:53.091Z,0.60
2023-03-15T01:02:22.086Z,0.60
2023-03-15T01:04:52.225Z,0.70
2023-03-15T01:07:21.330Z,0.60
2023-03-15T01:09:49.469Z,0.60
2023-03-15T01:12:17.588Z,0.70
2023-03-15T01:14:45.927Z,0.70
2023-03-15T01:17:14.177Z,0.90
2023-03-15T01:19:42.388Z,0.90
2023-03-15T01:22:11.940Z,0.63
2023-03-15T01:24:40.254Z,0.70
2023-03-15T01:27:08.389Z,0.80
2023-03-15T01:29:36.575Z,0.57
2023-03-15T01:32:04.793Z,1.27
2023-03-15T01:34:33.187Z,0.80
2023-03-15T01:37:02.829Z,0.70
2023-03-15T01:39:32.414Z,1.10
2023-03-15T01:42:00.563Z,0.83
2023-03-15T01:44:49.375Z,0.80
2023-03-15T01:47:17.565Z,0.70
2023-03-15T01:49:48.003Z,1.10
2023-03-15T01:52:19.489Z,0.70
2023-03-15T01:54:51.707Z,0.80
2023-03-15T01:57:23.546Z,0.80
2023-03-15T01:59:54.310Z,0.77
2023-03-15T02:02:23.170Z,0.60
2023-03-15T02:04:53.450Z,0.70
2023-03-15T02:07:22.966Z,0.90
2023-03-15T02:09:55.759Z,0.70
2023-03-15T02:12:23.960Z,1.10
2023-03-15T02:14:54.081Z,0.70
2023-03-15T02:17:26.549Z,0.80
2023-03-15T02:19:59.193Z,0.73
2023-03-15T02:22:32.074Z,0.80
2023-03-15T02:25:04.488Z,0.67
2023-03-15T02:27:35.415Z,0.90
2023-03-15T02:30:03.945Z,0.73
2023-03-15T02:32:32.388Z,0.80
2023-03-15T02:35:00.756Z,0.70
2023-03-15T02:37:28.948Z,0.90
2023-03-15T02:39:57.075Z,1.00
2023-03-15T02:42:25.340Z,1.03
2023-03-15T02:44:55.549Z,0.70
2023-03-15T02:47:26.702Z,0.63
2023-03-15T02:49:55.291Z,0.70
2023-03-15T02:52:23.994Z,0.80
2023-03-15T02:54:52.347Z,0.80
2023-03-15T02:57:21.178Z,0.93
2023-03-15T02:59:50.940Z,0.77
2023-03-15T03:02:20.935Z,0.80
2023-03-15T03:04:49.489Z,1.17
2023-03-15T03:07:17.738Z,0.80
2023-03-15T03:09:45.973Z,1.00
2023-03-15T03:12:14.425Z,0.90
2023-03-15T03:14:43.627Z,1.00
2023-03-15T03:17:11.896Z,0.97
2023-03-15T03:19:41.439Z,0.70
2023-03-15T03:22:09.712Z,0.40
2023-03-15T03:24:37.858Z,0.70
2023-03-15T03:27:06.117Z,0.90
2023-03-15T03:29:34.263Z,0.57
2023-03-15T03:32:02.560Z,0.53
2023-03-15T03:34:31.352Z,0.60
2023-03-15T03:37:00.916Z,0.63
2023-03-15T03:39:29.328Z,0.77
2023-03-15T03:41:57.454Z,0.60
2023-03-15T03:44:25.661Z,0.70
2023-03-15T03:46:53.875Z,0.80
2023-03-15T03:49:22.013Z,0.60
2023-03-15T03:51:50.205Z,0.80
2023-03-15T03:54:21.300Z,0.70
2023-03-15T03:56:49.695Z,0.77
2023-03-15T03:59:17.856Z,0.60
2023-03-15T04:01:46.087Z,0.87
2023-03-15T04:04:14.389Z,0.80
2023-03-15T04:06:45.619Z,0.83
2023-03-15T04:09:14.423Z,0.57
2023-03-15T04:11:44.534Z,0.50
2023-03-15T04:14:12.931Z,0.60
2023-03-15T04:16:41.153Z,0.80
2023-03-15T04:19:10.049Z,0.70
2023-03-15T04:21:38.226Z,0.80
2023-03-15T04:24:07.373Z,0.90
2023-03-15T04:26:35.574Z,1.10
2023-03-15T04:29:05.743Z,1.00
2023-03-15T04:31:37.736Z,0.90
2023-03-15T04:34:06.335Z,1.10
2023-03-15T04:36:34.552Z,1.37
2023-03-15T04:39:05.346Z,1.03
2023-03-15T04:41:34.777Z,0.90
2023-03-15T04:44:04.963Z,1.60
2023-03-15T04:46:33.931Z,1.60
2023-03-15T04:49:04.574Z,1.50
2023-03-15T04:51:34.232Z,1.37
2023-03-15T04:54:03.002Z,1.53
2023-03-15T04:56:31.540Z,1.93
2023-03-15T04:58:59.785Z,1.43
2023-03-15T05:01:31.691Z,1.00
2023-03-15T05:04:00.177Z,1.30
2023-03-15T05:06:28.357Z,1.20
2023-03-15T05:08:56.552Z,1.37
2023-03-15T05:11:24.764Z,1.20
2023-03-15T05:13:53.439Z,1.20
2023-03-15T05:16:21.687Z,1.10
2023-03-15T05:18:51.257Z,1.00
2023-03-15T05:21:19.463Z,1.20
2023-03-15T05:23:47.601Z,1.33
2023-03-15T05:26:15.802Z,1.10
2023-03-15T05:28:45.205Z,1.07
2023-03-15T05:31:13.520Z,1.10
2023-03-15T05:33:46.643Z,1.30
2023-03-15T05:36:17.416Z,1.10
2023-03-15T05:38:45.823Z,1.10
2023-03-15T05:41:18.103Z,1.10
2023-03-15T05:43:46.333Z,1.40
2023-03-15T05:46:14.805Z,1.53
2023-03-15T05:48:43.018Z,1.40
2023-03-15T05:51:11.254Z,1.17
2023-03-15T05:53:40.808Z,1.10
2023-03-15T05:56:09.476Z,1.40
2023-03-15T05:58:37.701Z,1.10
2023-03-15T06:01:06.465Z,1.00
2023-03-15T06:03:34.705Z,1.30
2023-03-15T06:06:03.386Z,1.20
2023-03-15T06:08:31.589Z,1.17
2023-03-15T06:11:01.094Z,1.10
2023-03-15T06:13:30.153Z,1.40
2023-03-15T06:15:58.319Z,1.37
2023-03-15T06:18:26.560Z,1.43
2023-03-15T06:20:54.727Z,1.13
2023-03-15T06:23:22.929Z,1.33
2023-03-15T06:25:51.082Z,1.57
2023-03-15T06:28:20.685Z,1.00
2023-03-15T06:30:49.046Z,1.43
2023-03-15T06:33:17.953Z,1.70
2023-03-15T06:35:47.477Z,1.80
2023-03-15T06:38:15.853Z,1.60
2023-03-15T06:40:44.013Z,1.87
2023-03-15T06:43:18.210Z,1.60
2023-03-15T06:45:47.769Z,1.67
2023-03-15T06:48:16.005Z,1.77
2023-03-15T06:50:47.441Z,1.83
2023-03-15T06:53:16.170Z,1.97
2023-03-15T06:55:44.435Z,1.90
2023-03-15T06:58:12.997Z,2.17
2023-03-15T07:00:41.671Z,2.17
2023-03-15T07:03:11.357Z,2.30
2023-03-15T07:05:39.574Z,2.30
2023-03-15T07:08:07.795Z,2.20
2023-03-15T07:10:36.402Z,2.40
2023-03-15T07:13:06.755Z,3.03
2023-03-15T07:15:34.947Z,2.70
2023-03-15T07:18:03.207Z,2.60
2023-03-15T07:20:32.764Z,3.17
2023-03-15T07:23:00.976Z,2.80
2023-03-15T07:25:29.190Z,2.53
2023-03-15T07:27:57.408Z,2.57
2023-03-15T07:30:25.620Z,2.87
2023-03-15T07:32:53.857Z,2.60
2023-03-15T07:35:22.075Z,2.53
2023-03-15T07:37:51.607Z,2.30
2023-03-15T07:40:19.987Z,2.23
2023-03-15T07:42:48.231Z,2.67
2023-03-15T07:45:16.483Z,1.83
2023-03-15T07:47:44.664Z,1.90
2023-03-15T07:50:15.798Z,2.17
2023-03-15T07:52:45.233Z,3.07
2023-03-15T07:55:14.776Z,2.33
2023-03-15T07:57:42.943Z,1.93
2023-03-15T08:00:13.470Z,2.43
2023-03-15T08:02:41.969Z,2.20
2023-03-15T08:05:10.304Z,2.03
2023-03-15T08:07:38.562Z,2.07
2023-03-15T08:10:07.260Z,2.00
2023-03-15T08:12:36.813Z,1.63
2023-03-15T08:15:05.124Z,1.30
2023-03-15T08:17:33.290Z,1.80
2023-03-15T08:20:05.792Z,1.80
2023-03-15T08:22:34.046Z,1.50
2023-03-15T08:25:02.257Z,1.40
2023-03-15T08:27:30.469Z,1.50
2023-03-15T08:30:00.037Z,1.80
2023-03-15T08:32:28.271Z,1.50
2023-03-15T08:34:56.717Z,1.90
2023-03-15T08:37:25.094Z,1.13
2023-03-15T08:40:01.019Z,1.30
2023-03-15T08:42:29.232Z,1.90
2023-03-15T08:44:59.509Z,1.33
2023-03-15T08:47:29.229Z,1.43
2023-03-15T08:49:57.383Z,1.20
2023-03-15T08:52:25.549Z,1.40
2023-03-15T08:54:53.714Z,1.00
2023-03-15T08:57:25.738Z,1.20
2023-03-15T08:59:54.134Z,1.17
2023-03-15T09:02:23.136Z,1.73
2023-03-15T09:04:53.601Z,1.00
2023-03-15T09:07:22.308Z,1.17
2023-03-15T09:09:54.219Z,1.33
2023-03-15T09:12:23.201Z,1.40
2023-03-15T09:14:51.382Z,1.63
2023-03-15T09:17:19.585Z,0.83
2023-03-15T09:19:47.761Z,1.30
2023-03-15T09:22:29.028Z,1.27
2023-03-15T09:25:03.156Z,2.00
2023-03-15T09:27:32.121Z,1.40
2023-03-15T09:30:00.661Z,1.20
2023-03-15T09:32:29.036Z,1.23
2023-03-15T09:34:57.542Z,1.17
2023-03-15T09:37:28.687Z,0.90
2023-03-15T09:39:56.863Z,0.90
2023-03-15T09:42:27.046Z,1.27
2023-03-15T09:45:01.160Z,1.10
2023-03-15T09:47:34.028Z,1.00
2023-03-15T09:50:04.867Z,1.03
2023-03-15T09:52:38.001Z,0.93
2023-03-15T09:55:08.703Z,1.60
2023-03-15T09:57:41.022Z,1.30
2023-03-15T10:00:14.931Z,1.00
2023-03-15T10:02:45.777Z,0.73
2023-03-15T10:05:16.231Z,0.80
2023-03-15T10:07:45.838Z,1.00
2023-03-15T10:10:16.642Z,1.00
2023-03-15T10:12:51.503Z,0.90
2023-03-15T10:15:27.828Z,1.07
2023-03-15T10:18:06.922Z,1.10
2023-03-15T10:20:35.678Z,0.90
2023-03-15T10:23:07.840Z,1.37
2023-03-15T10:25:37.235Z,1.10
2023-03-15T10:28:07.500Z,1.40
2023-03-15T10:30:37.021Z,1.30
2023-03-15T10:33:06.579Z,1.40
2023-03-15T10:35:34.847Z,1.30
2023-03-15T10:38:03.559Z,1.30
2023-03-15T10:40:42.384Z,1.33
2023-03-15T10:43:20.408Z,1.47
2023-03-15T10:45:51.487Z,1.47
2023-03-15T10:48:20.230Z,1.83
2023-03-15T10:50:48.597Z,2.07
2023-03-15T10:53:21.947Z,2.00
2023-03-15T10:55:51.570Z,1.87
2023-03-15T10:58:27.558Z,2.10
2023-03-15T11:01:00.804Z,1.77
2023-03-15T11:03:29.201Z,2.00
2023-03-15T11:05:58.209Z,2.17
2023-03-15T11:08:37.336Z,2.20
2023-03-15T11:11:07.149Z,1.57
2023-03-15T11:13:35.869Z,1.80
2023-03-15T11:16:06.134Z,1.70
2023-03-15T11:18:36.407Z,1.53
2023-03-15T11:21:07.309Z,1.50
2023-03-15T11:23:37.148Z,1.40
2023-03-15T11:26:07.149Z,1.50
2023-03-15T11:28:38.082Z,1.43
2023-03-15T11:31:07.103Z,2.03
2023-03-15T11:33:39.947Z,1.20
2023-03-15T11:36:12.371Z,1.50
2023-03-15T11:38:43.905Z,1.10
2023-03-15T11:41:18.684Z,1.57
2023-03-15T11:43:51.190Z,1.30
2023-03-15T11:46:23.123Z,1.70
2023-03-15T11:48:53.266Z,1.30
2023-03-15T11:51:21.461Z,1.13
2023-03-15T11:53:54.725Z,1.10
2023-03-15T11:56:25.940Z,1.33
2023-03-15T11:59:04.050Z,1.10
2023-03-15T12:01:32.245Z,0.90
2023-03-15T12:04:19.427Z,1.03
2023-03-15T12:06:47.922Z,1.40
2023-03-15T12:09:40.134Z,1.20
2023-03-15T12:12:33.095Z,1.00
2023-03-15T12:15:06.720Z,0.90
2023-03-15T12:17:39.487Z,1.10
2023-03-15T12:20:10.294Z,1.47
2023-03-15T12:22:39.636Z,1.00
2023-03-15T12:25:13.043Z,1.30
2023-03-15T12:27:42.642Z,0.93
2023-03-15T12:30:21.130Z,0.90
2023-03-15T12:32:51.794Z,1.70
2023-03-15T12:35:21.473Z,1.10
2023-03-15T12:37:50.929Z,1.10
2023-03-15T12:40:36.872Z,1.10
2023-03-15T12:43:05.117Z,0.93
2023-03-15T12:45:43.478Z,0.97
2023-03-15T12:48:35.612Z,0.90
2023-03-15T12:51:05.718Z,0.87
2023-03-15T12:53:40.017Z,0.80
2023-03-15T12:56:38.234Z,0.83
2023-03-15T12:59:09.152Z,1.20
2023-03-15T13:01:39.080Z,1.67
2023-03-15T13:04:07.370Z,0.70
2023-03-15T13:06:54.113Z,0.90
2023-03-15T13:09:28.883Z,0.70
2023-03-15T13:12:00.626Z,0.73
2023-03-15T13:14:34.950Z,0.80
2023-03-15T13:17:08.640Z,1.40
2023-03-15T13:19:38.734Z,0.90
2023-03-15T13:22:12.875Z,0.80
2023-03-15T13:24:45.208Z,0.97
2023-03-15T13:27:15.823Z,0.87
2023-03-15T13:29:44.297Z,0.90
2023-03-15T13:32:17.374Z,1.00
2023-03-15T13:34:47.178Z,0.80
2023-03-15T13:37:17.568Z,1.03
2023-03-15T13:39:56.642Z,0.87
2023-03-15T13:42:25.662Z,0.80
2023-03-15T13:45:12.966Z,0.87
2023-03-15T13:47:43.450Z,1.00
2023-03-15T13:50:15.999Z,0.90
2023-03-15T13:52:44.738Z,1.27
2023-03-15T13:55:14.508Z,0.90
2023-03-15T13:57:42.847Z,1.00
2023-03-15T14:00:12.844Z,0.93
2023-03-15T14:02:47.387Z,0.90
2023-03-15T14:05:16.659Z,0.83
2023-03-15T14:07:46.589Z,0.83
2023-03-15T14:10:27.093Z,1.00
2023-03-15T14:12:55.503Z,1.00
2023-03-15T14:15:25.827Z,0.80
2023-03-15T14:18:03.606Z,1.13
2023-03-15T14:20:33.607Z,0.80
2023-03-15T14:23:02.432Z,1.17
2023-03-15T14:25:31.784Z,1.00
2023-03-15T14:28:02.270Z,0.90
2023-03-15T14:30:31.350Z,1.00
2023-03-15T14:33:00.773Z,0.90
2023-03-15T14:35:32.543Z,1.00
2023-03-15T14:38:04.297Z,1.10
2023-03-15T14:40:35.595Z,1.00
2023-03-15T14:43:04.011Z,0.97
2023-03-15T14:45:33.006Z,0.90
2023-03-15T14:48:04.133Z,0.90
2023-03-15T14:50:35.653Z,0.83
2023-03-15T14:53:04.125Z,1.10
2023-03-15T14:55:34.880Z,1.17
2023-03-15T14:58:03.159Z,1.70
2023-03-15T15:00:31.933Z,0.97
2023-03-15T15:03:01.481Z,1.50
2023-03-15T15:05:30.346Z,1.17
2023-03-15T15:08:01.983Z,1.30
2023-03-15T15:10:30.184Z,1.20
2023-03-15T15:13:06.084Z,1.10
2023-03-15T15:15:53.491Z,0.97
2023-03-15T15:18:23.114Z,0.90
2023-03-15T15:20:54.098Z,1.10
2023-03-15T15:23:24.818Z,1.10
2023-03-15T15:25:54.857Z,1.20
2023-03-15T15:28:33.812Z,1.00
2023-03-15T15:31:03.298Z,0.97
2023-03-15T15:33:31.609Z,1.30
2023-03-15T15:36:00.136Z,1.30
2023-03-15T15:38:32.973Z,1.20
2023-03-15T15:41:01.326Z,0.97
2023-03-15T15:43:31.303Z,1.70
2023-03-15T15:46:01.862Z,1.57
2023-03-15T15:48:30.393Z,1.50
2023-03-15T15:50:58.578Z,1.50
2023-03-15T15:53:34.019Z,1.60
2023-03-15T15:56:03.596Z,1.53
2023-03-15T15:58:31.832Z,1.30
2023-03-15T16:01:00.008Z,1.60
2023-03-15T16:03:28.248Z,1.43
2023-03-15T16:05:56.426Z,2.00
2023-03-15T16:08:25.681Z,1.90
2023-03-15T16:10:53.872Z,1.87
2023-03-15T16:13:23.443Z,1.53
2023-03-15T16:15:51.636Z,2.00
2023-03-15T16:18:19.820Z,1.90
2023-03-15T16:20:47.981Z,2.13
2023-03-15T16:23:20.342Z,2.43
2023-03-15T16:25:49.689Z,2.00
2023-03-15T16:28:17.994Z,2.00
2023-03-15T16:30:47.633Z,1.90
2023-03-15T16:33:17.191Z,2.10
2023-03-15T16:35:45.590Z,2.30
2023-03-15T16:38:15.874Z,2.40
2023-03-15T16:40:45.312Z,2.60
2023-03-15T16:43:14.601Z,2.60
2023-03-15T16:45:42.870Z,2.43
2023-03-15T16:48:13.107Z,2.93
2023-03-15T16:50:41.813Z,2.83
2023-03-15T16:53:11.205Z,2.73
2023-03-15T16:55:39.663Z,3.13
2023-03-15T16:58:15.662Z,2.60
2023-03-15T17:00:46.909Z,2.87
2023-03-15T17:03:17.397Z,3.13
2023-03-15T17:05:47.117Z,3.07
2023-03-15T17:08:17.635Z,2.90
2023-03-15T17:10:46.382Z,3.30
2023-03-15T17:13:16.318Z,3.00
2023-03-15T17:15:44.582Z,3.30
2023-03-15T17:18:18.413Z,3.30
2023-03-15T17:20:47.237Z,3.23
2023-03-15T17:23:15.628Z,3.20
2023-03-15T17:25:43.879Z,3.80
2023-03-15T17:28:12.413Z,3.00
2023-03-15T17:30:40.984Z,3.30
2023-03-15T17:33:09.471Z,3.63
2023-03-15T17:35:40.567Z,4.17
2023-03-15T17:38:13.266Z,3.53
2023-03-15T17:40:41.753Z,3.70
2023-03-15T17:43:14.292Z,3.00
2023-03-15T17:45:42.904Z,3.10
2023-03-15T17:48:11.268Z,3.80
2023-03-15T17:50:42.137Z,3.43
2023-03-15T17:53:15.141Z,3.60
2023-03-15T17:55:43.893Z,3.67
2023-03-15T17:58:13.028Z,3.30
2023-03-15T18:00:43.398Z,3.53
2023-03-15T18:03:12.627Z,3.50
2023-03-15T18:05:42.532Z,4.17
2023-03-15T18:08:12.893Z,3.67
2023-03-15T18:10:42.434Z,3.43
2023-03-15T18:13:12.735Z,3.47
2023-03-15T18:15:40.974Z,3.60
2023-03-15T18:18:09.312Z,3.97
2023-03-15T18:20:37.839Z,3.83
2023-03-15T18:23:08.436Z,3.53
2023-03-15T18:25:37.515Z,3.63
2023-03-15T18:28:05.688Z,3.80
2023-03-15T18:30:34.830Z,3.77
2023-03-15T18:33:04.298Z,3.80
2023-03-15T18:35:33.853Z,3.47
2023-03-15T18:38:03.919Z,3.10
2023-03-15T18:40:34.230Z,2.80
2023-03-15T18:43:04.079Z,3.17
2023-03-15T18:45:33.263Z,3.00
2023-03-15T18:48:01.795Z,2.90
2023-03-15T18:50:30.532Z,2.60
2023-03-15T18:52:58.744Z,2.30
2023-03-15T18:55:26.933Z,2.57
2023-03-15T18:57:56.790Z,2.37
2023-03-15T19:00:27.366Z,2.10
2023-03-15T19:02:56.319Z,1.90
2023-03-15T19:05:25.333Z,2.47
2023-03-15T19:07:53.834Z,2.97
2023-03-15T19:10:23.023Z,2.40
2023-03-15T19:12:52.284Z,2.30
2023-03-15T19:15:22.433Z,2.10
2023-03-15T19:17:51.490Z,2.10
2023-03-15T19:20:22.056Z,2.03
2023-03-15T19:22:51.133Z,1.83
2023-03-15T19:25:19.662Z,2.00
2023-03-15T19:27:47.890Z,2.37
2023-03-15T19:30:18.842Z,2.23
2023-03-15T19:32:49.684Z,2.10
2023-03-15T19:35:19.266Z,2.33
2023-03-15T19:37:47.951Z,2.40
2023-03-15T19:40:16.690Z,2.50
2023-03-15T19:42:45.155Z,2.80
2023-03-15T19:45:15.287Z,2.40
2023-03-15T19:47:43.692Z,2.60
2023-03-15T19:50:14.460Z,2.70
2023-03-15T19:52:45.932Z,2.70
2023-03-15T19:55:14.458Z,3.20
2023-03-15T19:57:42.736Z,2.70
2023-03-15T20:00:12.687Z,2.80
2023-03-15T20:02:41.957Z,2.97
2023-03-15T20:05:10.609Z,2.80
2023-03-15T20:07:40.308Z,3.00
2023-03-15T20:10:10.058Z,3.17
2023-03-15T20:12:38.993Z,3.43
2023-03-15T20:15:09.997Z,3.10
2023-03-15T20:17:38.382Z,2.90
2023-03-15T20:20:10.131Z,3.03
2023-03-15T20:22:41.326Z,3.23
2023-03-15T20:25:10.343Z,3.07
2023-03-15T20:27:38.937Z,3.10
2023-03-15T20:30:08.028Z,3.33
2023-03-15T20:32:36.317Z,3.73
2023-03-15T20:35:09.016Z,3.10
2023-03-15T20:37:39.689Z,3.10
2023-03-15T20:40:10.781Z,3.50
2023-03-15T20:42:39.166Z,3.23
2023-03-15T20:45:08.040Z,4.00
2023-03-15T20:47:37.692Z,4.93
2023-03-15T20:50:06.259Z,5.13
2023-03-15T20:52:34.432Z,5.93
2023-03-15T20:55:03.577Z,4.00
2023-03-15T20:57:33.605Z,3.30
2023-03-15T21:00:02.256Z,3.10
2023-03-15T21:02:30.627Z,3.07
2023-03-15T21:04:59.273Z,3.13
2023-03-15T21:07:27.664Z,3.20
2023-03-15T21:09:56.171Z,3.67
2023-03-15T21:12:24.710Z,3.27
2023-03-15T21:14:54.706Z,3.30
2023-03-15T21:17:23.279Z,3.10
2023-03-15T21:19:51.828Z,3.57
2023-03-15T21:22:23.226Z,3.13
2023-03-15T21:24:55.912Z,3.03
2023-03-15T21:27:26.072Z,3.13
2023-03-15T21:29:56.076Z,3.10
2023-03-15T21:32:24.593Z,3.57
2023-03-15T21:34:53.201Z,3.60
2023-03-15T21:37:21.833Z,3.47
2023-03-15T21:39:50.210Z,3.10
2023-03-15T21:42:18.798Z,3.77
2023-03-15T21:44:47.341Z,3.30
2023-03-15T21:47:17.896Z,3.63
2023-03-15T21:49:46.340Z,3.23
2023-03-15T21:52:16.120Z,3.30
2023-03-15T21:54:44.967Z,3.70
2023-03-15T21:57:13.638Z,3.60
2023-03-15T21:59:41.816Z,3.87
2023-03-15T22:02:14.151Z,3.90
2023-03-15T22:04:43.980Z,3.70
2023-03-15T22:07:12.671Z,3.57
2023-03-15T22:09:42.475Z,3.70
2023-03-15T22:12:11.007Z,3.67
2023-03-15T22:14:40.026Z,4.13
2023-03-15T22:17:08.289Z,4.03
2023-03-15T22:19:36.658Z,3.93
2023-03-15T22:22:06.141Z,4.20
2023-03-15T22:24:34.831Z,3.93
2023-03-15T22:27:03.134Z,4.40
2023-03-15T22:29:31.375Z,4.47
2023-03-15T22:31:59.511Z,4.00
2023-03-15T22:34:27.784Z,4.00
2023-03-15T22:36:56.105Z,3.83
2023-03-15T22:39:26.108Z,4.63
2023-03-15T22:41:54.310Z,4.80
2023-03-15T22:44:22.741Z,4.43
2023-03-15T22:46:50.997Z,4.40
2023-03-15T22:49:19.258Z,4.77
2023-03-15T22:51:47.488Z,4.03
2023-03-15T22:54:15.707Z,4.50
2023-03-15T22:56:45.345Z,4.50
2023-03-15T22:59:13.481Z,4.23
2023-03-15T23:01:41.741Z,3.93
2023-03-15T23:04:10.286Z,4.27
2023-03-15T23:06:38.527Z,4.77
2023-03-15T23:09:06.844Z,4.47
2023-03-15T23:11:35.053Z,4.67
2023-03-15T23:14:04.592Z,4.50
2023-03-15T23:16:32.762Z,4.70
2023-03-15T23:19:03.101Z,4.63
2023-03-15T23:21:31.328Z,5.60
2023-03-15T23:23:59.585Z,4.70
2023-03-15T23:26:27.898Z,4.77
2023-03-15T23:28:56.203Z,4.43
2023-03-15T23:31:25.807Z,4.70
2023-03-15T23:33:54.066Z,4.77
2023-03-15T23:36:22.306Z,4.57
2023-03-15T23:38:53.220Z,4.80
2023-03-15T23:41:21.370Z,4.43
2023-03-15T23:43:49.529Z,4.87
2023-03-15T23:46:17.728Z,4.80
2023-03-15T23:48:47.256Z,4.63
2023-03-15T23:51:15.469Z,4.30
2023-03-15T23:53:43.663Z,4.87
2023-03-15T23:56:11.907Z,4.40
2023-03-15T23:58:40.156Z,4.47
